createdAt,value
2019-06-08T00:00:47.571Z,97223.16
2019-06-08T00:03:04.542Z,97240.61
2019-06-08T00:05:21.292Z,97247.81
2019-06-08T00:07:38.253Z,97262.11
2019-06-08T00:09:55.250Z,97266.25
2019-06-08T00:12:12.963Z,97279.32
2019-06-08T00:14:30.283Z,97279.13
2019-06-08T00:16:47.491Z,97285.48
2019-06-08T00:19:04.484Z,97297.41
2019-06-08T00:21:21.778Z,97306.89
2019-06-08T00:23:38.576Z,97315.66
2019-06-08T00:25:55.499Z,97345.53
2019-06-08T00:28:12.454Z,97345.53
2019-06-08T00:30:30.651Z,97350.29
2019-06-08T00:32:47.440Z,97334.78
2019-06-08T00:35:04.429Z,97334.78
2019-06-08T00:37:21.440Z,97353.44
2019-06-08T00:39:38.412Z,97361.44
2019-06-08T00:41:55.481Z,97358.73
2019-06-08T00:44:12.872Z,97368.53
2019-06-08T00:46:30.593Z,97381.72
2019-06-08T00:48:47.465Z,97381.72
2019-06-08T00:51:04.276Z,97379.30
2019-06-08T00:53:21.331Z,97382.05
2019-06-08T00:55:38.250Z,97384.72
2019-06-08T00:57:55.275Z,97358.63
2019-06-08T01:00:12.509Z,97351.70
2019-06-08T01:02:29.368Z,97343.46
2019-06-08T01:04:46.392Z,97324.23
2019-06-08T01:07:03.462Z,97314.67
2019-06-08T01:09:20.467Z,97305.17
2019-06-08T01:11:37.928Z,97304.30
2019-06-08T01:13:56.219Z,97301.25
2019-06-08T01:16:13.221Z,97296.36
2019-06-08T01:18:30.107Z,97305.24
2019-06-08T01:20:46.939Z,97331.23
2019-06-08T01:23:03.657Z,97319.50
2019-06-08T01:25:21.943Z,97324.61
2019-06-08T01:27:39.445Z,97337.88
2019-06-08T01:29:56.794Z,97321.23
2019-06-08T01:32:13.576Z,97287.00
2019-06-08T01:34:30.937Z,97287.00
2019-06-08T01:36:47.846Z,97311.09
2019-06-08T01:39:05.749Z,97312.95
2019-06-08T01:41:23.244Z,97309.38
2019-06-08T01:43:40.501Z,97309.38
2019-06-08T01:45:57.368Z,97329.72
2019-06-08T01:48:20.128Z,97325.50
2019-06-08T01:50:33.425Z,97317.87
2019-06-08T01:52:50.427Z,97316.48
2019-06-08T01:55:07.304Z,97317.37
2019-06-08T01:57:25.232Z,97335.80
2019-06-08T01:59:42.328Z,97343.11
2019-06-08T02:02:01.260Z,97345.97
2019-06-08T02:04:18.242Z,97346.44
2019-06-08T02:06:34.926Z,97360.27
2019-06-08T02:08:51.907Z,97349.18
2019-06-08T02:11:08.841Z,97351.94
2019-06-08T02:13:26.815Z,97358.63
2019-06-08T02:15:43.672Z,97353.35
2019-06-08T02:18:00.314Z,97355.67
2019-06-08T02:20:17.432Z,97360.42
2019-06-08T02:22:35.109Z,97365.11
2019-06-08T02:24:52.267Z,97368.45
2019-06-08T02:27:09.277Z,97367.28
2019-06-08T02:29:27.442Z,97375.05
2019-06-08T02:31:48.070Z,97366.46
2019-06-08T02:34:03.237Z,97361.56
2019-06-08T02:36:20.009Z,97356.76
2019-06-08T02:38:36.668Z,97357.23
2019-06-08T02:40:53.363Z,97375.53
2019-06-08T02:43:10.398Z,97379.18
2019-06-08T02:45:29.472Z,97385.16
2019-06-08T02:48:04.461Z,97382.55
2019-06-08T02:50:40.432Z,97383.91
2019-06-08T02:52:57.305Z,97391.60
2019-06-08T02:55:14.259Z,97389.41
2019-06-08T02:57:33.088Z,97395.33
2019-06-08T02:59:49.968Z,97394.54
2019-06-08T03:02:07.518Z,97395.55
2019-06-08T03:04:25.240Z,97395.28
2019-06-08T03:06:42.261Z,97389.69
2019-06-08T03:08:59.240Z,97398.52
2019-06-08T03:11:16.219Z,97402.23
2019-06-08T03:13:33.926Z,97417.17
2019-06-08T03:15:51.768Z,97423.48
2019-06-08T03:18:08.575Z,97413.52
2019-06-08T03:20:25.481Z,97413.52
2019-06-08T03:22:44.049Z,97426.10
2019-06-08T03:25:02.345Z,97448.95
2019-06-08T03:27:19.258Z,97445.15
2019-06-08T03:29:37.203Z,97436.53
2019-06-08T03:31:56.830Z,97438.68
2019-06-08T03:34:13.917Z,97439.42
2019-06-08T03:36:30.956Z,97444.39
2019-06-08T03:38:47.816Z,97438.79
2019-06-08T03:41:04.791Z,97431.47
2019-06-08T03:43:21.883Z,97428.54
2019-06-08T03:45:40.647Z,97428.54
2019-06-08T03:47:57.257Z,97426.73
2019-06-08T03:50:14.273Z,97425.69
2019-06-08T03:52:31.066Z,97428.25
2019-06-08T03:54:48.051Z,97464.78
2019-06-08T03:57:05.642Z,97423.50
2019-06-08T03:59:22.593Z,97406.39
2019-06-08T04:01:39.843Z,97406.39
2019-06-08T04:04:00.088Z,97434.09
2019-06-08T04:06:15.809Z,97440.45
2019-06-08T04:08:32.491Z,97429.91
2019-06-08T04:10:50.405Z,97435.19
2019-06-08T04:13:11.181Z,97430.30
2019-06-08T04:15:26.337Z,97426.82
2019-06-08T04:17:44.151Z,97418.30
2019-06-08T04:20:10.416Z,97410.02
2019-06-08T04:22:20.523Z,97405.95
2019-06-08T04:24:38.084Z,97390.14
2019-06-08T04:26:55.474Z,97375.53
2019-06-08T04:29:12.396Z,97394.75
2019-06-08T04:31:29.597Z,97434.88
2019-06-08T04:33:46.783Z,97421.62
2019-06-08T04:36:03.963Z,97414.50
2019-06-08T04:38:21.245Z,97426.58
2019-06-08T04:40:39.575Z,97430.88
2019-06-08T04:42:57.336Z,97428.77
2019-06-08T04:45:14.418Z,97404.69
2019-06-08T04:47:31.481Z,97415.52
2019-06-08T04:49:48.922Z,97434.25
2019-06-08T04:52:06.428Z,97408.14
2019-06-08T04:54:24.630Z,97432.30
2019-06-08T04:56:42.773Z,97434.83
2019-06-08T04:58:59.891Z,97445.05
2019-06-08T05:01:16.487Z,97457.25
2019-06-08T05:03:34.836Z,97453.81
2019-06-08T05:05:51.534Z,97468.95
2019-06-08T05:08:08.516Z,97460.99
2019-06-08T05:10:25.590Z,97480.31
2019-06-08T05:12:45.622Z,97485.31
2019-06-08T05:15:03.327Z,97467.61
2019-06-08T05:17:21.372Z,97479.20
2019-06-08T05:19:39.242Z,97465.66
2019-06-08T05:21:57.833Z,97483.79
2019-06-08T05:24:14.867Z,97483.79
2019-06-08T05:26:31.570Z,97483.66
2019-06-08T05:28:49.559Z,97486.09
2019-06-08T05:31:06.581Z,97506.91
2019-06-08T05:33:24.035Z,97506.91
2019-06-08T05:35:41.407Z,97512.91
2019-06-08T05:37:58.488Z,97495.09
2019-06-08T05:40:15.493Z,97490.05
2019-06-08T05:42:32.485Z,97493.06
2019-06-08T05:44:50.262Z,97502.97
2019-06-08T05:47:07.529Z,97489.50
2019-06-08T05:49:24.512Z,97488.41
2019-06-08T05:51:41.802Z,97523.96
2019-06-08T05:53:59.241Z,97516.44
2019-06-08T05:56:16.337Z,97523.67
2019-06-08T05:58:33.542Z,97527.61
2019-06-08T06:00:51.581Z,97537.90
2019-06-08T06:03:08.496Z,97537.90
2019-06-08T06:05:25.423Z,97540.80
2019-06-08T06:07:42.686Z,97533.42
2019-06-08T06:09:59.789Z,97535.03
2019-06-08T06:12:16.762Z,97527.95
2019-06-08T06:14:36.892Z,97500.42
2019-06-08T06:16:53.450Z,97500.42
2019-06-08T06:19:10.679Z,97563.61
2019-06-08T06:21:28.971Z,97541.69
2019-06-08T06:23:47.219Z,97541.69
2019-06-08T06:26:04.588Z,97544.32
2019-06-08T06:28:21.526Z,97550.61
2019-06-08T06:30:38.656Z,97537.34
2019-06-08T06:32:56.000Z,97546.73
2019-06-08T06:35:14.275Z,97559.01
2019-06-08T06:37:31.248Z,97551.78
2019-06-08T06:39:49.957Z,97560.27
2019-06-08T06:42:07.363Z,97575.25
2019-06-08T06:44:24.387Z,97561.13
2019-06-08T06:46:41.891Z,97563.23
2019-06-08T06:48:58.673Z,97570.20
2019-06-08T06:51:25.607Z,97563.95
2019-06-08T06:53:33.682Z,97573.96
2019-06-08T06:55:51.485Z,97592.54
2019-06-08T06:58:08.340Z,97592.54
2019-06-08T07:00:32.754Z,97584.81
2019-06-08T07:02:50.049Z,97602.22
2019-06-08T07:05:07.357Z,97602.22
2019-06-08T07:07:24.490Z,97610.84
2019-06-08T07:09:41.820Z,97629.02
2019-06-08T07:11:58.565Z,97661.09
2019-06-08T07:14:15.461Z,97654.20
2019-06-08T07:16:32.524Z,97660.64
2019-06-08T07:18:50.244Z,97660.91
2019-06-08T07:21:07.490Z,97650.06
2019-06-08T07:23:24.475Z,97643.16
2019-06-08T07:25:41.644Z,97659.91
2019-06-08T07:27:59.387Z,97687.42
2019-06-08T07:30:17.016Z,97675.66
2019-06-08T07:32:33.723Z,97676.04
2019-06-08T07:34:51.540Z,97682.05
2019-06-08T07:37:08.439Z,97653.93
2019-06-08T07:39:26.223Z,97653.93
2019-06-08T07:41:43.296Z,97674.36
2019-06-08T07:44:00.466Z,97694.61
2019-06-08T07:46:17.487Z,97691.48
2019-06-08T07:48:34.511Z,97698.03
2019-06-08T07:50:52.230Z,97710.61
2019-06-08T07:53:09.668Z,97706.77
2019-06-08T07:55:26.532Z,97701.95
2019-06-08T07:57:43.706Z,97697.92
2019-06-08T08:00:00.507Z,97689.92
2019-06-08T08:02:18.531Z,97686.86
2019-06-08T08:04:38.107Z,97693.38
2019-06-08T08:06:56.593Z,97670.53
2019-06-08T08:09:13.670Z,97686.03
2019-06-08T08:11:30.897Z,97675.28
2019-06-08T08:13:50.149Z,97697.20
2019-06-08T08:16:06.958Z,97705.37
2019-06-08T08:18:24.055Z,97714.03
2019-06-08T08:20:40.670Z,97706.95
2019-06-08T08:23:04.141Z,97709.39
2019-06-08T08:25:18.260Z,97703.48
2019-06-08T08:27:37.614Z,97706.00
2019-06-08T08:29:55.352Z,97713.58
2019-06-08T08:32:12.541Z,97702.88
2019-06-08T08:34:29.465Z,97702.88
2019-06-08T08:36:50.532Z,97714.14
2019-06-08T08:39:08.652Z,97714.14
2019-06-08T08:41:27.792Z,97671.68
2019-06-08T08:43:44.286Z,97671.68
2019-06-08T08:46:02.009Z,97691.75
2019-06-08T08:48:25.350Z,97703.51
2019-06-08T08:50:38.328Z,97701.16
2019-06-08T08:52:58.480Z,97698.98
2019-06-08T08:55:13.861Z,97698.95
2019-06-08T08:57:31.007Z,97700.21
2019-06-08T08:59:50.382Z,97695.34
2019-06-08T09:02:10.995Z,97706.84
2019-06-08T09:04:27.768Z,97697.03
2019-06-08T09:06:45.238Z,97708.05
2019-06-08T09:09:03.645Z,97711.46
2019-06-08T09:11:21.616Z,97723.03
2019-06-08T09:13:38.449Z,97712.22
2019-06-08T09:15:55.844Z,97712.64
2019-06-08T09:18:13.128Z,97726.34
2019-06-08T09:20:31.480Z,97721.34
2019-06-08T09:22:56.824Z,97730.29
2019-06-08T09:25:08.786Z,97720.10
2019-06-08T09:27:28.057Z,97735.69
2019-06-08T09:29:45.055Z,97729.79
2019-06-08T09:32:03.473Z,97737.13
2019-06-08T09:34:20.754Z,97743.66
2019-06-08T09:36:40.725Z,97741.85
2019-06-08T09:38:59.629Z,97735.25
2019-06-08T09:41:15.535Z,97735.83
2019-06-08T09:43:32.772Z,97747.44
2019-06-08T09:45:55.369Z,97738.75
2019-06-08T09:48:13.127Z,97734.70
2019-06-08T09:50:31.554Z,97753.27
2019-06-08T09:53:06.054Z,97742.33
2019-06-08T09:55:09.715Z,97741.66
2019-06-08T09:57:28.581Z,97741.44
2019-06-08T09:59:48.080Z,97754.92
2019-06-08T10:02:09.394Z,97746.89
2019-06-08T10:04:25.606Z,97757.78
2019-06-08T10:06:43.833Z,97752.50
2019-06-08T10:09:02.794Z,97749.23
2019-06-08T10:11:23.861Z,97748.50
2019-06-08T10:13:43.395Z,97763.18
2019-06-08T10:16:03.091Z,97748.33
2019-06-08T10:18:18.574Z,97743.13
2019-06-08T10:20:38.245Z,97739.74
2019-06-08T10:22:54.807Z,97748.55
2019-06-08T10:25:12.941Z,97760.40
2019-06-08T10:27:29.659Z,97744.58
2019-06-08T10:29:48.375Z,97757.50
2019-06-08T10:32:08.892Z,97752.37
2019-06-08T10:34:27.311Z,97751.86
2019-06-08T10:36:45.936Z,97759.81
2019-06-08T10:39:07.249Z,97792.63
2019-06-08T10:41:23.832Z,97767.41
2019-06-08T10:43:42.591Z,97778.39
2019-06-08T10:46:05.325Z,97778.14
2019-06-08T10:48:19.507Z,97778.95
2019-06-08T10:50:37.076Z,97781.83
2019-06-08T10:52:54.110Z,97771.73
2019-06-08T10:55:12.227Z,97785.42
2019-06-08T10:57:30.492Z,97788.97
2019-06-08T10:59:48.760Z,97781.75
2019-06-08T11:02:11.314Z,97792.14
2019-06-08T11:04:28.507Z,97794.34
2019-06-08T11:06:47.695Z,97794.34
2019-06-08T11:09:07.447Z,97800.26
2019-06-08T11:11:23.249Z,97800.26
2019-06-08T11:13:41.252Z,97819.75
2019-06-08T11:16:00.281Z,97826.11
2019-06-08T11:18:18.639Z,97829.22
2019-06-08T11:20:38.150Z,97824.13
2019-06-08T11:22:57.845Z,97833.92
2019-06-08T11:25:16.348Z,97839.32
2019-06-08T11:27:33.571Z,97839.32
2019-06-08T11:29:50.815Z,97849.94
2019-06-08T11:32:10.923Z,97846.38
2019-06-08T11:34:28.717Z,97843.87
2019-06-08T11:36:48.395Z,97854.71
2019-06-08T11:39:06.763Z,97842.77
2019-06-08T11:41:24.306Z,97842.77
2019-06-08T11:43:41.288Z,97857.63
2019-06-08T11:46:02.487Z,97853.23
2019-06-08T11:48:19.988Z,97844.73
2019-06-08T11:50:41.978Z,97844.73
2019-06-08T11:53:00.640Z,97864.59
2019-06-08T11:55:18.214Z,97864.59
2019-06-08T11:57:37.409Z,97862.29
2019-06-08T11:59:54.511Z,97879.73
2019-06-08T12:02:14.148Z,97877.93
2019-06-08T12:04:31.345Z,97873.79
2019-06-08T12:06:48.517Z,97873.38
2019-06-08T12:09:09.195Z,97877.95
2019-06-08T12:11:28.018Z,97883.98
2019-06-08T12:13:46.906Z,97845.81
2019-06-08T12:16:03.467Z,97845.81
2019-06-08T12:18:21.553Z,97878.81
2019-06-08T12:20:38.682Z,97864.15
2019-06-08T12:22:56.095Z,97874.47
2019-06-08T12:25:14.832Z,97883.94
2019-06-08T12:27:36.390Z,97881.16
2019-06-08T12:29:52.974Z,97887.26
2019-06-08T12:32:12.755Z,97877.23
2019-06-08T12:34:33.063Z,97882.64
2019-06-08T12:36:49.945Z,97872.55
2019-06-08T12:39:08.289Z,97856.25
2019-06-08T12:41:25.472Z,97854.08
2019-06-08T12:43:42.624Z,97869.47
2019-06-08T12:46:01.139Z,97875.05
2019-06-08T12:48:23.392Z,97852.59
2019-06-08T12:50:38.658Z,97864.02
2019-06-08T12:52:58.390Z,97870.69
2019-06-08T12:55:20.180Z,97867.83
2019-06-08T12:57:34.444Z,97866.00
2019-06-08T12:59:52.618Z,97868.64
2019-06-08T13:02:12.883Z,97866.56
2019-06-08T13:04:29.426Z,97870.66
2019-06-08T13:06:48.615Z,97866.97
2019-06-08T13:09:10.073Z,97867.68
2019-06-08T13:11:28.248Z,97884.02
2019-06-08T13:13:45.356Z,97884.50
2019-06-08T13:16:02.348Z,97875.70
2019-06-08T13:18:20.168Z,97893.02
2019-06-08T13:20:38.923Z,97904.14
2019-06-08T13:22:57.599Z,97881.59
2019-06-08T13:25:28.847Z,97876.50
2019-06-08T13:27:34.458Z,97899.11
2019-06-08T13:29:51.555Z,97873.51
2019-06-08T13:32:09.856Z,97881.98
2019-06-08T13:34:28.419Z,97896.36
2019-06-08T13:36:48.505Z,97873.38
2019-06-08T13:39:09.871Z,97879.00
2019-06-08T13:41:29.921Z,97890.44
2019-06-08T13:43:47.813Z,97890.44
2019-06-08T13:46:05.243Z,97889.08
2019-06-08T13:48:23.347Z,97878.56
2019-06-08T13:50:40.354Z,97884.63
2019-06-08T13:53:00.452Z,97897.45
2019-06-08T13:55:36.317Z,97902.30
2019-06-08T13:57:38.826Z,97905.41
2019-06-08T13:59:57.866Z,97898.55
2019-06-08T14:02:17.817Z,97898.36
2019-06-08T14:04:39.464Z,97895.91
2019-06-08T14:06:54.834Z,97909.38
2019-06-08T14:09:12.139Z,97912.05
2019-06-08T14:11:29.112Z,97898.39
2019-06-08T14:13:48.044Z,97896.23
2019-06-08T14:16:05.433Z,97896.98
2019-06-08T14:18:26.256Z,97896.81
2019-06-08T14:20:42.794Z,97898.72
2019-06-08T14:23:00.635Z,97894.25
2019-06-08T14:25:20.079Z,97875.45
2019-06-08T14:27:37.478Z,97900.25
2019-06-08T14:29:58.308Z,97900.25
2019-06-08T14:32:18.899Z,97887.73
2019-06-08T14:34:35.238Z,97899.09
2019-06-08T14:36:52.270Z,97899.09
2019-06-08T14:39:10.972Z,97896.95
2019-06-08T14:41:31.152Z,97895.52
2019-06-08T14:43:50.549Z,97897.93
2019-06-08T14:46:08.111Z,97893.48
2019-06-08T14:48:28.163Z,97891.83
2019-06-08T14:50:43.604Z,97890.80
2019-06-08T14:53:00.853Z,97884.71
2019-06-08T14:55:20.104Z,97895.24
2019-06-08T14:57:37.505Z,97908.12
2019-06-08T14:59:58.181Z,97908.12
2019-06-08T15:02:14.348Z,97896.17
2019-06-08T15:04:35.987Z,97925.06
2019-06-08T15:06:50.254Z,97913.13
2019-06-08T15:09:08.635Z,97911.88
2019-06-08T15:11:30.993Z,97907.93
2019-06-08T15:13:48.743Z,97915.09
2019-06-08T15:16:08.139Z,97915.09
2019-06-08T15:18:25.851Z,97909.81
2019-06-08T15:20:43.692Z,97909.55
2019-06-08T15:23:03.525Z,97902.39
2019-06-08T15:25:20.575Z,97902.39
2019-06-08T15:27:38.896Z,97910.77
2019-06-08T15:29:58.623Z,97913.02
2019-06-08T15:32:17.824Z,97911.23
2019-06-08T15:34:34.680Z,97913.98
2019-06-08T15:36:51.604Z,97922.91
2019-06-08T15:39:08.761Z,97920.17
2019-06-08T15:41:26.547Z,97919.77
2019-06-08T15:43:44.251Z,97919.77
2019-06-08T15:46:01.236Z,97919.13
2019-06-08T15:48:20.387Z,97922.34
2019-06-08T15:50:37.863Z,97918.23
2019-06-08T15:52:59.820Z,97916.48
2019-06-08T15:55:14.427Z,97938.59
2019-06-08T15:57:36.594Z,97919.02
2019-06-08T15:59:50.844Z,97923.85
2019-06-08T16:02:07.658Z,97919.33
2019-06-08T16:04:25.697Z,97932.65
2019-06-08T16:06:42.565Z,97909.33
2019-06-08T16:08:59.844Z,97909.33
2019-06-08T16:11:19.040Z,97918.55
2019-06-08T16:13:36.530Z,97917.12
2019-06-08T16:15:54.546Z,97913.89
2019-06-08T16:18:11.981Z,97915.52
2019-06-08T16:20:29.618Z,97907.88
2019-06-08T16:22:46.658Z,97913.44
2019-06-08T16:25:04.038Z,97916.30
2019-06-08T19:44:29.371Z,98037.82
2019-06-08T19:46:47.547Z,98047.13
2019-06-08T19:49:07.848Z,98047.94
2019-06-08T19:51:27.627Z,98053.89
2019-06-08T19:53:46.566Z,98062.36
2019-06-08T19:56:03.522Z,98060.13
2019-06-08T19:58:22.965Z,98059.23
2019-06-08T20:00:41.104Z,98066.49
2019-06-08T20:03:01.017Z,98065.23
2019-06-08T20:05:18.440Z,98071.23
2019-06-08T20:07:37.890Z,98067.90
2019-06-08T20:09:57.106Z,98067.63
2019-06-08T20:12:14.533Z,98066.04
2019-06-08T20:14:32.023Z,98072.20
2019-06-08T20:16:50.921Z,98071.13
2019-06-08T20:19:10.931Z,98072.27
2019-06-08T20:21:30.247Z,98077.26
2019-06-08T20:23:49.767Z,98071.76
2019-06-08T20:26:08.328Z,98072.00
2019-06-08T20:28:28.254Z,98072.00
2019-06-08T20:30:46.683Z,98089.56
2019-06-08T20:33:04.020Z,98081.16
2019-06-08T20:35:21.265Z,98087.54
2019-06-08T20:37:38.507Z,98091.28
2019-06-08T20:40:07.137Z,98089.51
2019-06-08T20:42:14.083Z,98089.22
2019-06-08T20:44:31.429Z,98092.70
2019-06-08T20:46:49.557Z,98089.42
2019-06-08T20:49:08.396Z,98084.86
2019-06-08T20:51:27.717Z,98092.66
2019-06-08T20:53:44.510Z,98092.00
2019-06-08T20:56:01.486Z,98093.38
2019-06-08T20:58:18.650Z,98058.06
2019-06-08T21:00:37.761Z,98058.06
2019-06-08T21:03:01.721Z,98093.75
2019-06-08T21:05:14.026Z,98095.02
2019-06-08T21:07:31.036Z,98090.77
2019-06-08T21:09:50.746Z,98090.91
2019-06-08T21:12:06.712Z,98094.80
2019-06-08T21:14:27.205Z,98086.80
2019-06-08T21:16:43.095Z,98086.80
2019-06-08T21:18:59.837Z,98089.31
2019-06-08T21:21:17.542Z,98096.94
2019-06-08T21:23:34.307Z,98094.78
2019-06-08T21:25:56.344Z,98105.55
2019-06-08T21:28:12.630Z,98104.66
2019-06-08T21:30:32.040Z,98099.64
2019-06-08T21:32:52.922Z,98104.45
2019-06-08T21:35:08.247Z,98091.59
2019-06-08T21:37:28.100Z,98095.53
2019-06-08T21:39:44.487Z,98095.53
2019-06-08T21:42:03.243Z,98094.52
2019-06-08T21:44:19.974Z,98095.94
2019-06-08T21:46:38.075Z,98100.55
2019-06-08T21:48:56.863Z,98103.30
2019-06-08T21:51:14.326Z,98102.31
2019-06-08T21:53:32.796Z,98101.06
2019-06-08T21:55:50.719Z,98108.94
2019-06-08T21:58:09.413Z,98101.41
2019-06-08T22:00:39.170Z,98100.97
2019-06-08T22:02:47.972Z,98107.22
2019-06-08T22:05:08.816Z,98116.13
2019-06-08T22:07:25.690Z,98101.78
2019-06-08T22:09:44.274Z,98105.50
2019-06-08T22:12:01.287Z,98110.52
2019-06-08T22:14:18.261Z,98107.30
2019-06-08T22:16:38.060Z,98109.04
2019-06-08T22:18:54.910Z,98119.81
2019-06-08T22:21:12.323Z,98113.91
2019-06-08T22:23:29.423Z,98124.47
2019-06-08T22:25:47.726Z,98117.70
2019-06-08T22:28:07.127Z,98120.48
2019-06-08T22:30:36.366Z,98121.84
2019-06-08T22:32:43.477Z,98127.46
2019-06-08T22:35:01.827Z,98128.94
2019-06-08T22:37:19.081Z,98115.65
2019-06-08T22:39:37.434Z,98122.06
2019-06-08T22:41:55.476Z,98117.81
2019-06-08T22:44:12.644Z,98126.22
2019-06-08T22:46:29.481Z,98125.59
2019-06-08T22:48:47.756Z,98134.25
2019-06-08T22:51:04.690Z,98132.06
2019-06-08T22:53:21.523Z,98135.64
2019-06-08T22:55:38.458Z,98135.64
2019-06-08T22:57:55.420Z,98136.81
2019-06-08T23:00:17.579Z,98135.04
2019-06-08T23:02:31.250Z,98135.04
2019-06-08T23:04:48.015Z,98141.70
2019-06-08T23:07:07.007Z,98135.77
2019-06-08T23:09:23.399Z,98141.26
2019-06-08T23:11:40.445Z,98141.26
2019-06-08T23:14:00.797Z,98138.33
2019-06-08T23:16:18.219Z,98138.88
2019-06-08T23:18:37.363Z,98143.95
2019-06-08T23:20:57.401Z,98140.66
2019-06-08T23:23:14.225Z,98142.08
2019-06-08T23:25:31.265Z,98140.74
2019-06-08T23:27:48.497Z,98138.59
2019-06-08T23:30:09.969Z,98141.91
2019-06-08T23:32:27.498Z,98144.27
2019-06-08T23:34:43.992Z,98139.56
2019-06-08T23:37:05.583Z,98136.83
2019-06-08T23:39:19.544Z,98144.28
2019-06-08T23:41:37.744Z,98141.16
2019-06-08T23:43:54.442Z,98123.56
2019-06-08T23:46:11.250Z,98123.56
2019-06-08T23:48:28.250Z,98140.91
2019-06-08T23:50:47.243Z,98143.46
2019-06-08T23:53:04.342Z,98136.77
2019-06-08T23:55:21.378Z,98136.77
2019-06-08T23:57:38.557Z,98136.41
2019-06-08T23:59:55.619Z,98139.70
